Time;durP1;ratioP1;P1;durP2;ratioP2;P2;SDS_P1;SDS_P2;PMS_P1;PMS_P2;Temp;Humidity;BMP_temperature;BMP_pressure;BME280_temperature;BME280_humidity;BME280_pressure;Samples;Min_cycle;Max_cycle;Signal;HPM_P1;HPM_P2
2023/08/03 00:01:07;;;;;;;3.38;1.63;;;16.00;99.90;;;;;;5102837;27;20062;-57
2023/08/03 00:03:33;;;;;;;6.80;1.70;;;16.00;99.90;;;;;;5083325;28;20053;-57
2023/08/03 00:05:59;;;;;;;4.00;1.40;;;16.00;99.90;;;;;;5086657;28;20052;-58
2023/08/03 00:08:24;;;;;;;4.65;1.10;;;16.00;99.90;;;;;;5103305;28;20047;-57
2023/08/03 00:10:50;;;;;;;6.40;1.70;;;16.00;99.90;;;;;;5094083;28;20087;-57
2023/08/03 00:13:16;;;;;;;6.95;1.00;;;16.00;99.90;;;;;;5057944;28;20521;-57
2023/08/03 00:15:41;;;;;;;3.55;1.27;;;16.00;99.90;;;;;;5068027;28;20091;-56
2023/08/03 00:18:07;;;;;;;2.40;1.15;;;16.00;99.90;;;;;;5105078;28;20055;-57
2023/08/03 00:20:33;;;;;;;5.88;1.05;;;16.00;99.90;;;;;;5066172;28;20147;-56
2023/08/03 00:22:58;;;;;;;6.47;1.88;;;16.00;99.90;;;;;;5084479;28;20085;-56
2023/08/03 00:25:24;;;;;;;5.13;1.08;;;16.00;99.90;;;;;;5083748;28;20063;-56
2023/08/03 00:27:50;;;;;;;5.88;1.38;;;16.00;99.90;;;;;;5083551;28;20048;-56
2023/08/03 00:30:16;;;;;;;1.73;1.10;;;16.00;99.90;;;;;;5082280;28;20059;-57
2023/08/03 00:32:41;;;;;;;2.55;1.05;;;16.00;99.90;;;;;;5080620;28;20059;-56
2023/08/03 00:35:08;;;;;;;3.47;1.25;;;16.00;99.90;;;;;;5083660;28;20501;-57
2023/08/03 00:37:33;;;;;;;1.95;0.95;;;16.00;99.90;;;;;;5077823;28;20116;-56
2023/08/03 00:39:59;;;;;;;3.55;1.05;;;16.10;99.90;;;;;;5083661;28;20055;-57
2023/08/03 00:42:25;;;;;;;4.03;1.30;;;16.10;99.90;;;;;;5083389;28;20052;-56
2023/08/03 00:44:50;;;;;;;4.30;1.52;;;16.10;99.90;;;;;;5051122;28;20061;-59
2023/08/03 00:47:16;;;;;;;5.43;1.20;;;16.10;99.90;;;;;;5075304;28;20801;-60
2023/08/03 00:49:42;;;;;;;5.93;1.10;;;16.10;99.90;;;;;;5080565;28;20068;-57
2023/08/03 00:52:07;;;;;;;2.85;1.20;;;16.10;99.90;;;;;;5083584;28;20562;-58
2023/08/03 00:54:33;;;;;;;3.55;1.10;;;16.10;99.90;;;;;;5081365;28;20079;-57
2023/08/03 00:56:59;;;;;;;4.45;1.10;;;16.10;99.90;;;;;;5083566;28;20067;-57
2023/08/03 00:59:25;;;;;;;3.65;1.05;;;16.10;99.90;;;;;;5082702;28;20056;-57
2023/08/03 01:01:50;;;;;;;3.33;1.00;;;16.10;99.90;;;;;;5082343;28;20056;-65
2023/08/03 01:04:16;;;;;;;3.97;1.35;;;16.10;99.90;;;;;;5082955;28;20067;-56
2023/08/03 01:06:42;;;;;;;3.60;1.27;;;16.10;99.90;;;;;;5081180;28;20083;-57
2023/08/03 01:09:08;;;;;;;3.25;1.20;;;16.10;99.90;;;;;;5057217;28;20135;-57
2023/08/03 01:11:34;;;;;;;5.35;1.10;;;16.10;99.90;;;;;;5058202;28;20095;-65
2023/08/03 01:14:00;;;;;;;3.08;1.10;;;16.10;99.90;;;;;;5080130;28;20056;-65
2023/08/03 01:16:27;;;;;;;3.13;1.25;;;16.20;99.90;;;;;;5067744;28;20059;-62
2023/08/03 01:18:53;;;;;;;5.10;1.13;;;16.20;99.90;;;;;;5082283;28;20071;-65
2023/08/03 01:21:23;;;;;;;3.80;1.00;;;16.20;99.90;;;;;;5083310;28;20060;-62
2023/08/03 01:23:49;;;;;;;1.88;1.10;;;16.20;99.90;;;;;;5101375;27;20063;-65
2023/08/03 01:26:15;;;;;;;1.98;1.25;;;16.20;99.90;;;;;;5106655;27;20116;-63
2023/08/03 01:28:41;;;;;;;2.97;1.10;;;16.20;99.90;;;;;;5082021;27;20060;-63
2023/08/03 01:31:06;;;;;;;2.00;0.88;;;16.20;99.90;;;;;;5084640;28;20050;-65
2023/08/03 01:33:32;;;;;;;2.75;1.55;;;16.20;99.90;;;;;;5080809;28;20116;-64
2023/08/03 01:35:58;;;;;;;2.33;1.08;;;16.20;99.90;;;;;;5050049;28;20507;-66
2023/08/03 01:38:24;;;;;;;2.75;1.20;;;16.30;99.90;;;;;;5077341;27;20149;-62
2023/08/03 01:40:49;;;;;;;8.38;1.25;;;16.30;99.90;;;;;;5085319;28;21206;-63
2023/08/03 01:43:15;;;;;;;2.95;0.98;;;16.30;99.90;;;;;;5086204;28;20619;-60
2023/08/03 01:45:41;;;;;;;2.70;1.33;;;16.30;99.90;;;;;;5099269;28;20063;-60
2023/08/03 01:48:07;;;;;;;2.25;1.05;;;16.30;99.90;;;;;;5109357;27;20059;-58
2023/08/03 01:50:32;;;;;;;2.22;1.88;;;16.30;99.90;;;;;;5100454;27;20813;-59
2023/08/03 01:52:58;;;;;;;3.60;1.30;;;16.30;99.90;;;;;;5081690;28;20059;-61
2023/08/03 01:55:24;;;;;;;2.47;1.40;;;16.30;99.90;;;;;;5100764;27;20129;-61
2023/08/03 01:57:49;;;;;;;2.50;0.90;;;16.30;99.90;;;;;;5090503;27;20059;-60
2023/08/03 02:00:15;;;;;;;4.13;1.50;;;16.30;99.90;;;;;;5091151;27;20139;-61
2023/08/03 02:02:41;;;;;;;1.40;1.15;;;16.30;99.90;;;;;;5077565;28;20056;-59
2023/08/03 02:05:07;;;;;;;1.55;0.95;;;16.30;99.90;;;;;;5091685;28;20056;-59
2023/08/03 02:07:44;;;;;;;2.75;0.80;;;16.30;99.90;;;;;;5103177;27;20782;-59
2023/08/03 02:10:14;;;;;;;3.47;0.90;;;16.30;99.90;;;;;;5095999;28;20650;-59
2023/08/03 02:12:40;;;;;;;1.50;0.60;;;16.30;99.90;;;;;;5071521;28;20091;-59
2023/08/03 02:15:06;;;;;;;1.63;0.52;;;16.30;99.90;;;;;;5101809;27;20134;-57
2023/08/03 02:17:33;;;;;;;1.13;0.50;;;16.30;99.90;;;;;;5081524;27;20106;-57
2023/08/03 02:19:59;;;;;;;1.00;0.55;;;16.30;99.90;;;;;;5099385;27;20566;-59
2023/08/03 02:22:25;;;;;;;0.35;0.32;;;16.30;99.90;;;;;;5094693;27;20055;-59
2023/08/03 02:24:51;;;;;;;1.55;0.60;;;16.20;99.90;;;;;;5064698;28;20056;-66
2023/08/03 02:27:16;;;;;;;0.82;0.35;;;16.20;99.90;;;;;;5095326;28;20055;-61
2023/08/03 02:29:42;;;;;;;0.50;0.50;;;16.20;99.90;;;;;;5078510;27;20059;-58
2023/08/03 02:32:08;;;;;;;0.85;0.50;;;16.20;99.90;;;;;;5076809;28;20056;-57
2023/08/03 02:34:33;;;;;;;0.43;0.32;;;16.20;99.90;;;;;;5094995;27;20125;-57
2023/08/03 02:36:59;;;;;;;0.80;0.25;;;16.20;99.90;;;;;;5087782;28;20199;-58
2023/08/03 02:39:25;;;;;;;0.40;0.40;;;16.20;99.90;;;;;;5095096;27;20051;-57
2023/08/03 02:41:52;;;;;;;1.70;0.30;;;16.20;99.90;;;;;;5087218;28;20586;-58
2023/08/03 02:44:18;;;;;;;0.40;0.40;;;16.20;99.90;;;;;;5095091;28;20130;-58
2023/08/03 02:46:44;;;;;;;4.90;1.10;;;16.30;99.90;;;;;;5091313;27;20148;-58
2023/08/03 02:49:10;;;;;;;1.10;0.40;;;16.20;99.90;;;;;;5094450;27;20070;-58
2023/08/03 02:51:35;;;;;;;1.67;0.80;;;16.30;99.90;;;;;;5097378;28;20051;-58
2023/08/03 02:54:01;;;;;;;2.40;0.40;;;16.30;99.90;;;;;;5093905;28;20052;-57
2023/08/03 02:56:27;;;;;;;3.20;0.50;;;16.30;99.90;;;;;;5078005;28;20060;-62
2023/08/03 02:58:54;;;;;;;2.60;0.50;;;16.30;99.90;;;;;;5098735;28;20051;-58
2023/08/03 03:03:49;;;;;;;0.50;0.30;;;16.30;99.90;;;;;;5099764;28;20055;-58
2023/08/03 03:06:15;;;;;;;1.42;0.60;;;16.30;99.90;;;;;;5083524;28;20505;-63
2023/08/03 03:08:40;;;;;;;1.88;0.60;;;16.20;99.90;;;;;;5099105;28;20071;-62
2023/08/03 03:11:06;;;;;;;0.43;0.43;;;16.30;99.90;;;;;;5101656;28;20161;-57
2023/08/03 03:13:31;;;;;;;1.35;0.70;;;16.30;99.90;;;;;;5099379;28;20163;-57
2023/08/03 03:15:57;;;;;;;1.45;0.80;;;16.30;99.90;;;;;;5101367;28;20156;-57
2023/08/03 03:18:23;;;;;;;1.48;0.88;;;16.30;99.90;;;;;;5101960;28;20064;-58
2023/08/03 03:20:49;;;;;;;1.58;0.70;;;16.30;99.90;;;;;;5080967;28;20063;-58
2023/08/03 03:23:15;;;;;;;1.65;0.90;;;16.30;99.90;;;;;;5083476;28;20413;-57
2023/08/03 03:25:40;;;;;;;2.55;1.15;;;16.30;99.90;;;;;;5098913;28;20059;-58
2023/08/03 03:28:06;;;;;;;1.15;0.80;;;16.30;99.90;;;;;;5101338;28;20513;-58
2023/08/03 03:30:32;;;;;;;1.75;0.90;;;16.80;99.90;;;;;;5094683;28;20055;-57
2023/08/03 03:32:58;;;;;;;1.73;1.10;;;16.30;99.90;;;;;;5102475;28;20501;-57
2023/08/03 03:35:23;;;;;;;2.40;1.30;;;16.30;99.90;;;;;;5105742;28;20067;-57
2023/08/03 03:37:49;;;;;;;1.08;0.98;;;16.30;99.90;;;;;;5083407;28;20056;-61
2023/08/03 03:40:15;;;;;;;1.00;0.90;;;16.30;99.90;;;;;;5093724;28;20189;-58
2023/08/03 03:42:40;;;;;;;4.10;1.08;;;16.30;99.90;;;;;;5082280;28;20086;-58
2023/08/03 03:46:04;;;;;;;1.92;0.82;;;16.30;99.90;;;;;;5112038;27;20530;-57
2023/08/03 03:48:29;;;;;;;1.15;1.00;;;16.30;99.90;;;;;;5119861;28;20138;-58
2023/08/03 03:50:55;;;;;;;1.45;1.08;;;16.20;99.90;;;;;;5117293;28;20063;-56
2023/08/03 03:53:21;;;;;;;3.72;1.35;;;16.30;99.90;;;;;;5119336;27;20085;-57
2023/08/03 03:55:47;;;;;;;1.08;0.95;;;16.30;99.90;;;;;;5116832;28;20067;-56
2023/08/03 03:58:12;;;;;;;1.23;1.13;;;16.30;99.90;;;;;;5110893;28;21506;-57
2023/08/03 04:00:41;;;;;;;2.92;1.35;;;16.30;99.90;;;;;;5076817;28;20063;-57
2023/08/03 04:03:07;;;;;;;1.52;1.10;;;16.30;99.90;;;;;;5097960;28;20062;-57
2023/08/03 04:05:36;;;;;;;2.13;1.33;;;16.30;99.90;;;;;;5098370;28;20785;-57
2023/08/03 04:08:03;;;;;;;1.52;1.10;;;16.30;99.90;;;;;;5091578;28;20067;-57
2023/08/03 04:10:29;;;;;;;2.35;1.27;;;16.30;99.90;;;;;;5097087;28;20454;-58
2023/08/03 04:12:55;;;;;;;1.30;1.20;;;16.40;99.90;;;;;;5095109;28;20047;-57
2023/08/03 04:15:21;;;;;;;1.42;1.33;;;16.30;99.90;;;;;;5076028;28;20137;-57
2023/08/03 04:17:48;;;;;;;2.42;1.67;;;16.40;99.90;;;;;;5101693;28;20076;-58
2023/08/03 04:20:14;;;;;;;5.40;1.52;;;16.40;99.90;;;;;;5098824;28;20517;-57
2023/08/03 04:22:40;;;;;;;2.47;2.08;;;16.40;99.90;;;;;;5096682;28;20055;-57
2023/08/03 04:25:07;;;;;;;3.10;1.80;;;16.40;99.90;;;;;;5094072;28;20059;-57
2023/08/03 04:27:36;;;;;;;5.50;2.17;;;16.50;99.90;;;;;;5098311;28;20113;-57
2023/08/03 04:30:02;;;;;;;3.30;2.10;;;16.40;99.90;;;;;;5062196;28;20044;-61
2023/08/03 04:32:28;;;;;;;2.92;2.45;;;16.40;99.90;;;;;;5076810;28;20414;-58
2023/08/03 04:34:54;;;;;;;4.50;2.80;;;16.50;99.90;;;;;;5075287;28;20080;-58
2023/08/03 04:37:19;;;;;;;6.13;3.58;;;16.40;99.90;;;;;;5077785;28;20056;-58
2023/08/03 04:39:46;;;;;;;3.08;2.78;;;16.50;99.90;;;;;;5081552;28;20048;-61
2023/08/03 04:42:11;;;;;;;3.80;2.92;;;16.50;99.90;;;;;;5053913;28;20059;-58
2023/08/03 04:44:37;;;;;;;4.72;2.55;;;16.50;99.90;;;;;;5091772;28;20516;-58
2023/08/03 04:47:03;;;;;;;4.13;2.85;;;16.40;99.90;;;;;;5097194;28;20070;-62
2023/08/03 04:49:28;;;;;;;6.65;3.20;;;16.50;99.90;;;;;;5098294;28;20125;-60
2023/08/03 04:51:54;;;;;;;4.05;2.55;;;16.50;99.90;;;;;;5095116;28;20088;-63
2023/08/03 04:54:20;;;;;;;4.65;3.20;;;16.50;99.90;;;;;;5098280;28;20051;-58
2023/08/03 04:56:46;;;;;;;6.47;3.13;;;16.60;99.90;;;;;;5084980;28;20075;-64
2023/08/03 04:59:12;;;;;;;6.13;3.47;;;16.70;99.90;;;;;;5079353;28;20056;-63
2023/08/03 05:01:38;;;;;;;5.45;3.00;;;16.80;99.90;;;;;;5070064;28;20192;-63
2023/08/03 05:04:04;;;;;;;9.43;3.97;;;16.80;99.90;;;;;;5082740;28;20079;-58
2023/08/03 05:06:29;;;;;;;5.15;3.65;;;16.80;99.90;;;;;;5083660;28;20063;-57
2023/08/03 05:08:55;;;;;;;4.35;2.85;;;17.00;99.90;;;;;;5081539;28;20064;-60
2023/08/03 05:11:21;;;;;;;6.15;3.25;;;17.10;99.90;;;;;;5083569;28;20505;-60
2023/08/03 05:13:47;;;;;;;9.40;3.70;;;17.20;99.90;;;;;;5081152;28;20055;-57
2023/08/03 05:16:12;;;;;;;4.68;3.10;;;17.30;99.90;;;;;;5083597;28;20048;-57
2023/08/03 05:18:38;;;;;;;4.18;2.80;;;17.40;99.90;;;;;;5082409;28;20159;-57
2023/08/03 05:21:04;;;;;;;7.57;3.58;;;17.50;99.90;;;;;;5082365;28;20055;-57
2023/08/03 05:23:30;;;;;;;5.93;4.18;;;17.60;99.90;;;;;;5083971;28;20689;-57
2023/08/03 05:25:56;;;;;;;5.90;3.05;;;17.70;99.90;;;;;;5080163;28;20563;-58
2023/08/03 05:28:23;;;;;;;7.85;3.13;;;17.60;99.90;;;;;;5083728;28;20075;-57
2023/08/03 05:30:49;;;;;;;5.28;2.90;;;17.50;99.90;;;;;;5037540;28;20118;-57
2023/08/03 05:33:15;;;;;;;13.48;4.32;;;17.40;99.90;;;;;;5076386;28;20488;-57
2023/08/03 05:35:41;;;;;;;3.33;2.42;;;17.40;99.90;;;;;;5081474;28;20148;-57
2023/08/03 05:38:07;;;;;;;4.40;2.33;;;17.40;99.90;;;;;;5083090;28;20052;-57
2023/08/03 05:40:36;;;;;;;5.25;2.30;;;17.40;99.90;;;;;;5082709;28;20102;-57
2023/08/03 05:43:01;;;;;;;6.47;2.47;;;17.30;99.90;;;;;;5055858;28;20061;-58
2023/08/03 05:45:35;;;;;;;4.05;1.92;;;17.20;99.90;;;;;;5073768;28;20117;-57
2023/08/03 05:48:00;;;;;;;4.22;2.45;;;17.10;99.90;;;;;;5080903;28;20059;-58
2023/08/03 05:50:26;;;;;;;6.10;3.20;;;17.10;99.90;;;;;;5068185;28;20082;-58
2023/08/03 05:52:52;;;;;;;5.88;3.50;;;17.00;99.90;;;;;;5067942;28;20083;-57
2023/08/03 05:55:18;;;;;;;6.18;3.45;;;17.00;99.90;;;;;;5046359;28;20167;-58
2023/08/03 05:57:44;;;;;;;8.77;3.80;;;17.00;99.90;;;;;;5068194;28;20487;-57
2023/08/03 06:00:19;;;;;;;7.03;3.25;;;17.00;99.90;;;;;;5051306;28;20049;-58
2023/08/03 06:02:46;;;;;;;2.85;2.42;;;16.90;99.90;;;;;;5061605;28;20056;-57
2023/08/03 06:05:35;;;;;;;4.50;2.72;;;16.90;99.90;;;;;;5073325;28;20597;-57
2023/08/03 06:08:00;;;;;;;3.50;2.53;;;16.90;99.90;;;;;;5065047;28;21334;-57
2023/08/03 06:10:27;;;;;;;5.40;2.50;;;17.00;99.90;;;;;;5061174;28;20053;-58
2023/08/03 06:12:52;;;;;;;5.80;2.40;;;17.00;99.90;;;;;;5050629;28;20077;-58
2023/08/03 06:15:19;;;;;;;2.70;2.47;;;17.10;99.90;;;;;;5052921;28;20143;-56
2023/08/03 06:17:45;;;;;;;5.28;2.60;;;17.10;99.90;;;;;;5051378;28;20507;-64
2023/08/03 06:20:14;;;;;;;11.82;2.70;;;17.10;99.90;;;;;;5066371;28;20048;-61
2023/08/03 06:22:40;;;;;;;5.07;2.72;;;17.20;99.90;;;;;;5068811;28;20105;-57
2023/08/03 06:25:08;;;;;;;4.97;2.35;;;17.40;99.90;;;;;;5061351;28;20874;-59
2023/08/03 06:27:39;;;;;;;2.33;2.10;;;17.70;99.90;;;;;;5074615;28;20141;-59
2023/08/03 06:30:11;;;;;;;3.78;2.00;;;17.90;99.90;;;;;;5082577;28;20528;-59
2023/08/03 06:32:37;;;;;;;4.75;2.13;;;18.10;99.90;;;;;;5084834;28;20055;-59
2023/08/03 06:35:04;;;;;;;4.35;2.90;;;18.20;99.90;;;;;;5053665;28;20078;-57
2023/08/03 06:37:30;;;;;;;3.85;2.25;;;18.30;99.90;;;;;;5061822;28;20063;-57
2023/08/03 06:39:56;;;;;;;2.88;1.98;;;18.40;99.90;;;;;;5067296;28;20060;-58
2023/08/03 06:42:21;;;;;;;3.83;2.17;;;18.70;99.90;;;;;;5070564;28;20075;-57
2023/08/03 06:44:47;;;;;;;2.70;1.88;;;19.10;99.90;;;;;;5054800;28;20052;-57
2023/08/03 06:47:13;;;;;;;2.85;1.90;;;19.40;99.90;;;;;;5039443;28;20697;-58
2023/08/03 06:49:39;;;;;;;3.25;1.92;;;19.30;99.90;;;;;;5065318;28;20057;-58
2023/08/03 06:52:05;;;;;;;4.78;2.08;;;19.30;99.90;;;;;;5085579;28;20058;-58
2023/08/03 06:54:30;;;;;;;2.47;1.92;;;19.00;99.90;;;;;;5083774;28;20060;-63
2023/08/03 06:56:56;;;;;;;1.55;1.45;;;18.70;99.90;;;;;;5061836;28;20139;-59
2023/08/03 06:59:22;;;;;;;2.35;1.42;;;18.60;99.90;;;;;;5063189;28;20088;-57
2023/08/03 07:01:49;;;;;;;1.65;1.50;;;18.60;99.90;;;;;;5076326;28;20101;-59
2023/08/03 07:04:15;;;;;;;2.45;1.60;;;18.60;99.90;;;;;;5060399;28;20064;-58
2023/08/03 07:06:45;;;;;;;2.67;1.30;;;18.60;99.90;;;;;;5045339;28;20567;-58
2023/08/03 07:09:10;;;;;;;1.60;1.45;;;18.70;99.90;;;;;;5062031;28;20056;-57
2023/08/03 07:11:37;;;;;;;3.47;1.63;;;18.70;99.90;;;;;;5069146;28;20100;-58
2023/08/03 07:14:03;;;;;;;6.07;1.50;;;18.80;99.90;;;;;;5082424;28;20047;-57
2023/08/03 07:16:28;;;;;;;2.25;1.17;;;18.60;99.90;;;;;;5090510;28;20823;-57
2023/08/03 07:18:55;;;;;;;1.63;1.10;;;18.40;99.90;;;;;;5042004;28;20052;-57
2023/08/03 07:21:21;;;;;;;4.63;1.52;;;18.40;99.90;;;;;;5065106;28;20498;-57
2023/08/03 07:23:46;;;;;;;3.80;2.58;;;18.70;99.90;;;;;;5084022;28;20058;-57
2023/08/03 07:26:15;;;;;;;2.35;1.70;;;18.50;99.90;;;;;;5059964;28;20068;-57
2023/08/03 07:28:42;;;;;;;1.92;1.42;;;18.90;99.90;;;;;;5064561;28;20081;-58
2023/08/03 07:31:14;;;;;;;5.97;2.17;;;19.10;99.90;;;;;;5069325;28;20055;-60
2023/08/03 07:33:40;;;;;;;1.98;1.80;;;19.00;99.90;;;;;;5059191;28;20140;-57
2023/08/03 07:36:06;;;;;;;1.40;1.30;;;19.30;99.90;;;;;;5051377;28;20170;-57
2023/08/03 07:38:57;;;;;;;3.38;1.50;;;19.50;99.90;;;;;;5061386;28;20059;-58
2023/08/03 07:41:22;;;;;;;2.13;1.55;;;19.60;99.90;;;;;;5063515;28;20443;-57
2023/08/03 07:43:50;;;;;;;2.75;1.20;;;19.40;99.90;;;;;;5056763;28;20048;-57
2023/08/03 07:46:15;;;;;;;1.33;0.90;;;19.30;99.90;;;;;;5070854;28;20446;-58
2023/08/03 07:48:41;;;;;;;1.70;1.00;;;19.60;99.90;;;;;;5053314;28;20520;-58
2023/08/03 07:51:17;;;;;;;1.80;1.23;;;19.80;99.90;;;;;;5060220;28;20541;-57
2023/08/03 07:53:43;;;;;;;7.53;1.55;;;20.00;99.90;;;;;;5069041;28;20135;-58
2023/08/03 07:56:16;;;;;;;2.97;1.92;;;20.10;99.90;;;;;;5074724;28;20052;-57
2023/08/03 07:58:43;;;;;;;2.50;1.23;;;20.70;99.90;;;;;;5070240;28;20147;-58
2023/08/03 08:01:08;;;;;;;1.58;1.10;;;20.70;99.90;;;;;;5073743;28;20083;-57
2023/08/03 08:03:37;;;;;;;6.75;1.52;;;20.90;99.90;;;;;;5035169;28;1102345;-57
2023/08/03 08:06:10;;;;;;;1.48;1.05;;;20.90;99.90;;;;;;5082019;28;20414;-57
2023/08/03 08:08:39;;;;;;;2.88;1.17;;;21.10;99.90;;;;;;5075344;28;20672;-57
2023/08/03 08:11:05;;;;;;;2.75;0.90;;;21.40;99.90;;;;;;5075823;28;20070;-61
2023/08/03 08:13:35;;;;;;;4.43;0.93;;;21.10;99.90;;;;;;5040023;28;20819;-59
2023/08/03 08:16:05;;;;;;;3.20;1.10;;;20.90;99.90;;;;;;5030484;28;20536;-63
2023/08/03 08:20:58;;;;;;;2.53;1.15;;;21.30;99.90;;;;;;5071878;28;20184;-59
2023/08/03 08:23:24;;;;;;;3.70;1.10;;;21.20;99.90;;;;;;5055998;28;20102;-59
2023/08/03 08:25:50;;;;;;;2.35;0.80;;;21.10;99.90;;;;;;5055252;28;20672;-59
2023/08/03 08:28:16;;;;;;;3.08;0.90;;;21.60;99.90;;;;;;5062906;28;20765;-66
2023/08/03 08:30:41;;;;;;;5.65;1.48;;;21.80;99.90;;;;;;5059275;28;20148;-64
2023/08/03 08:33:07;;;;;;;2.65;0.65;;;22.20;99.90;;;;;;5072386;28;20497;-62
2023/08/03 08:35:36;;;;;;;2.67;1.35;;;22.00;99.90;;;;;;5042961;28;20084;-63
2023/08/03 08:38:04;;;;;;;2.15;0.80;;;22.80;99.90;;;;;;5068039;28;20060;-60
2023/08/03 08:43:21;;;;;;;3.58;1.15;;;22.90;99.90;;;;;;5075968;28;20501;-65
2023/08/03 08:45:47;;;;;;;3.20;1.13;;;22.80;99.90;;;;;;5043226;28;20048;-61
2023/08/03 08:48:13;;;;;;;3.92;0.90;;;23.00;99.90;;;;;;5042608;28;20056;-59
2023/08/03 08:50:41;;;;;;;3.78;0.77;;;23.70;99.90;;;;;;5063456;28;20668;-62
2023/08/03 08:53:06;;;;;;;1.08;0.55;;;23.80;99.90;;;;;;5080223;28;20138;-59
2023/08/03 08:55:36;;;;;;;2.50;0.50;;;23.20;99.90;;;;;;5080495;28;20052;-59
2023/08/03 08:58:02;;;;;;;1.15;0.70;;;22.50;99.90;;;;;;5071052;28;20395;-58
2023/08/03 09:00:27;;;;;;;1.48;0.85;;;21.90;99.90;;;;;;5094227;27;20086;-58
2023/08/03 09:03:00;;;;;;;1.33;0.60;;;21.70;99.90;;;;;;5066577;28;20429;-63
2023/08/03 09:05:26;;;;;;;2.20;1.10;;;21.40;99.90;;;;;;5066518;28;20067;-59
2023/08/03 09:08:09;;;;;;;4.30;1.42;;;21.20;99.90;;;;;;5063856;28;20061;-63
2023/08/03 09:10:52;;;;;;;6.28;1.55;;;21.00;99.90;;;;;;5042847;28;20060;-58
2023/08/03 09:13:35;;;;;;;1.92;0.88;;;20.90;99.90;;;;;;5083791;28;20707;-59
2023/08/03 09:16:02;;;;;;;5.38;1.52;;;21.10;99.90;;;;;;5067700;28;20051;-59
2023/08/03 09:18:30;;;;;;;1.52;0.75;;;21.90;99.90;;;;;;5088644;28;20163;-59
2023/08/03 09:21:10;;;;;;;3.33;0.90;;;22.10;99.90;;;;;;5069892;28;20048;-59
2023/08/03 09:23:36;;;;;;;1.15;0.60;;;22.20;99.90;;;;;;5088768;28;20122;-60
2023/08/03 09:26:05;;;;;;;2.30;0.82;;;22.10;99.90;;;;;;5087388;28;20070;-60
2023/08/03 09:28:35;;;;;;;5.43;1.27;;;22.00;99.90;;;;;;5067995;28;20721;-59
2023/08/03 09:31:02;;;;;;;4.35;1.10;;;22.20;99.90;;;;;;5064960;28;20151;-64
2023/08/03 09:33:28;;;;;;;4.70;1.00;;;22.30;99.90;;;;;;5061906;28;20969;-60
2023/08/03 09:36:04;;;;;;;1.08;0.38;;;22.80;99.90;;;;;;5048827;28;20067;-62
2023/08/03 09:38:30;;;;;;;2.90;0.98;;;23.50;99.90;;;;;;5078762;28;20051;-71
2023/08/03 09:40:56;;;;;;;8.45;1.35;;;23.40;99.90;;;;;;5058554;28;20456;-59
2023/08/03 09:43:26;;;;;;;3.63;1.30;;;23.00;99.90;;;;;;5064986;28;20104;-62
2023/08/03 09:45:53;;;;;;;4.78;0.98;;;22.50;99.90;;;;;;5066925;28;20795;-64
2023/08/03 09:48:20;;;;;;;2.70;0.65;;;22.10;99.90;;;;;;5058923;28;20091;-63
2023/08/03 09:50:50;;;;;;;2.65;0.68;;;21.90;99.90;;;;;;5067002;28;20052;-58
2023/08/03 09:53:20;;;;;;;5.45;1.10;;;22.20;99.90;;;;;;5058716;28;20060;-59
2023/08/03 09:56:00;;;;;;;3.83;1.15;;;22.70;99.90;;;;;;5053592;28;20113;-59
2023/08/03 09:58:35;;;;;;;4.25;1.08;;;23.10;99.90;;;;;;5070901;28;20070;-59
2023/08/03 10:01:03;;;;;;;3.58;1.20;;;23.40;99.90;;;;;;5065709;28;20055;-59
2023/08/03 10:03:35;;;;;;;3.53;1.02;;;23.90;99.90;;;;;;5070941;27;20052;-67
2023/08/03 10:06:11;;;;;;;1.58;1.27;;;23.80;99.90;;;;;;5047705;28;20111;-66
2023/08/03 10:08:51;;;;;;;4.75;1.50;;;23.80;99.90;;;;;;5057479;28;20052;-63
2023/08/03 10:11:20;;;;;;;2.45;0.80;;;23.50;99.90;;;;;;5065016;28;20060;-62
2023/08/03 10:13:47;;;;;;;4.03;0.98;;;23.40;99.90;;;;;;5057026;28;20514;-63
2023/08/03 10:16:17;;;;;;;4.53;0.80;;;23.20;99.90;;;;;;5073523;28;20056;-71
2023/08/03 10:18:44;;;;;;;5.68;0.85;;;22.80;99.90;;;;;;5053647;28;20555;-67
2023/08/03 10:21:10;;;;;;;3.30;1.10;;;23.10;99.90;;;;;;5038158;28;20091;-69
2023/08/03 10:23:39;;;;;;;3.13;0.82;;;23.50;99.90;;;;;;5053196;28;20140;-69
2023/08/03 10:26:07;;;;;;;2.25;1.10;;;23.60;99.90;;;;;;5060359;28;20517;-60
2023/08/03 10:28:39;;;;;;;4.47;1.27;;;24.50;99.90;;;;;;5077826;28;20055;-59
2023/08/03 10:31:14;;;;;;;4.93;1.40;;;25.00;99.90;;;;;;5079413;28;20060;-60
2023/08/03 10:33:49;;;;;;;2.97;1.27;;;25.10;99.90;;;;;;5077282;28;20143;-60
2023/08/03 10:36:35;;;;;;;5.22;1.58;;;25.40;99.90;;;;;;5079373;28;20063;-60
2023/08/03 10:39:07;;;;;;;6.03;1.45;;;26.00;99.90;;;;;;5069782;28;20052;-66
2023/08/03 10:41:44;;;;;;;2.67;0.95;;;26.10;99.90;;;;;;5043409;28;20404;-62
2023/08/03 10:44:13;;;;;;;3.47;1.08;;;26.60;99.90;;;;;;5055776;28;20067;-63
2023/08/03 10:46:49;;;;;;;3.65;0.77;;;25.80;99.90;;;;;;5051207;28;20048;-63
2023/08/03 10:49:18;;;;;;;3.55;1.27;;;25.00;99.90;;;;;;5062494;28;20060;-65
2023/08/03 10:51:54;;;;;;;3.58;0.93;;;24.00;99.90;;;;;;5066423;28;20495;-59
2023/08/03 10:54:28;;;;;;;2.70;0.80;;;23.70;99.90;;;;;;5067618;28;20048;-60
2023/08/03 10:57:13;;;;;;;;;;;22.70;99.90;;;;;;5060131;28;20067;-62
2023/08/03 10:59:44;;;;;;;1.75;0.90;;;22.40;99.90;;;;;;5069639;28;20280;-60
2023/08/03 11:02:14;;;;;;;2.90;1.15;;;22.10;99.90;;;;;;5063638;28;20070;-59
2023/08/03 11:04:42;;;;;;;4.75;1.65;;;21.60;99.90;;;;;;5041282;28;20064;-60
2023/08/03 11:07:10;;;;;;;8.15;2.15;;;21.60;99.90;;;;;;5055181;28;20087;-63
2023/08/03 11:09:36;;;;;;;5.43;1.25;;;20.80;99.90;;;;;;5070857;28;20080;-58
2023/08/03 11:12:07;;;;;;;3.03;0.60;;;20.20;99.90;;;;;;5060362;28;20048;-60
2023/08/03 11:14:37;;;;;;;5.07;1.27;;;20.20;99.90;;;;;;5055030;28;20482;-58
2023/08/03 11:17:03;;;;;;;3.17;1.20;;;20.30;99.90;;;;;;5060596;28;20526;-59
2023/08/03 11:19:32;;;;;;;6.00;1.33;;;20.30;99.90;;;;;;5062872;28;20048;-61
2023/08/03 11:22:01;;;;;;;6.85;1.48;;;20.30;99.90;;;;;;5052976;28;20052;-58
2023/08/03 11:24:31;;;;;;;7.25;1.77;;;20.20;99.90;;;;;;5031847;28;20701;-59
2023/08/03 11:26:58;;;;;;;3.35;1.35;;;20.20;99.90;;;;;;5060849;28;20669;-59
2023/08/03 11:29:24;;;;;;;10.27;2.15;;;20.40;99.90;;;;;;5067550;28;20415;-61
2023/08/03 11:31:50;;;;;;;7.80;1.80;;;21.00;99.90;;;;;;5056819;28;20068;-60
2023/08/03 11:34:16;;;;;;;6.22;2.47;;;22.30;99.90;;;;;;5051668;28;20121;-60
2023/08/03 11:36:48;;;;;;;5.15;2.03;;;22.00;99.90;;;;;;5047216;28;20502;-62
2023/08/03 11:39:14;;;;;;;6.35;1.60;;;22.10;99.90;;;;;;5071716;28;20057;-60
2023/08/03 11:41:40;;;;;;;3.53;1.40;;;23.70;99.90;;;;;;5055698;28;20683;-60
2023/08/03 11:44:09;;;;;;;5.97;1.40;;;23.20;99.90;;;;;;5052595;28;20167;-59
2023/08/03 11:46:34;;;;;;;12.65;2.00;;;23.10;99.90;;;;;;5058144;28;20075;-60
2023/08/03 11:49:02;;;;;;;4.43;1.13;;;22.30;99.90;;;;;;5036802;28;20053;-61
2023/08/03 11:51:36;;;;;;;8.85;1.83;;;21.70;99.90;;;;;;5053512;28;20063;-60
2023/08/03 11:54:06;;;;;;;2.67;1.23;;;22.00;99.90;;;;;;5059536;28;20102;-61
2023/08/03 11:56:38;;;;;;;4.18;1.67;;;22.80;99.90;;;;;;5057850;28;20078;-59
2023/08/03 11:59:09;;;;;;;2.75;1.27;;;24.40;99.90;;;;;;5063482;28;20104;-62
2023/08/03 12:01:49;;;;;;;3.20;1.02;;;23.40;99.90;;;;;;5066575;28;20121;-59
2023/08/03 12:04:16;;;;;;;3.03;1.10;;;24.50;99.90;;;;;;5061328;28;21954;-62
2023/08/03 12:06:52;;;;;;;2.75;0.80;;;24.60;99.90;;;;;;5086997;28;20059;-60
2023/08/03 12:09:24;;;;;;;3.05;0.70;;;23.90;99.90;;;;;;5060210;28;20132;-60
2023/08/03 12:11:50;;;;;;;4.28;1.13;;;26.50;99.90;;;;;;5065286;28;20060;-59
2023/08/03 12:14:17;;;;;;;3.00;0.68;;;29.00;99.90;;;;;;5060452;28;20063;-59
2023/08/03 12:16:43;;;;;;;3.38;1.55;;;30.40;99.90;;;;;;5071174;28;20157;-60
2023/08/03 12:19:09;;;;;;;1.70;0.70;;;31.80;99.90;;;;;;5020204;28;1116561;-62
2023/08/03 12:21:38;;;;;;;1.75;0.95;;;28.60;99.90;;;;;;5076376;28;20068;-60
2023/08/03 12:24:04;;;;;;;1.23;0.50;;;27.80;99.90;;;;;;5076750;28;20302;-61
2023/08/03 12:26:30;;;;;;;2.08;0.65;;;26.70;99.90;;;;;;5074345;28;20059;-60
2023/08/03 12:28:57;;;;;;;1.08;0.63;;;28.90;99.90;;;;;;5089194;28;20588;-63
2023/08/03 12:31:23;;;;;;;0.45;0.40;;;29.60;99.90;;;;;;5084219;28;20060;-61
2023/08/03 12:33:48;;;;;;;0.40;0.30;;;27.70;99.90;;;;;;5071324;28;20049;-62
2023/08/03 12:36:15;;;;;;;1.52;0.70;;;29.70;99.90;;;;;;5043948;28;20105;-60
2023/08/03 12:38:41;;;;;;;2.45;0.90;;;30.30;99.90;;;;;;5070259;28;20059;-59
2023/08/03 12:41:06;;;;;;;4.18;0.70;;;30.20;99.90;;;;;;5056487;28;20057;-59
2023/08/03 12:46:01;;;;;;;8.98;1.85;;;31.20;99.90;;;;;;5085532;28;20060;-59
2023/08/03 12:48:27;;;;;;;2.80;1.30;;;26.30;99.90;;;;;;5047575;28;20090;-60
2023/08/03 12:50:52;;;;;;;2.28;0.98;;;25.60;99.90;;;;;;5067419;28;20400;-59
2023/08/03 12:53:18;;;;;;;4.78;1.77;;;26.40;99.90;;;;;;5071032;28;20061;-59
2023/08/03 12:55:44;;;;;;;6.72;1.25;;;27.50;99.90;;;;;;5057131;28;20144;-59
2023/08/03 12:58:11;;;;;;;21.35;2.22;;;27.90;99.90;;;;;;5041865;28;20056;-59
2023/08/03 13:00:37;;;;;;;4.97;1.60;;;27.50;99.90;;;;;;5059025;28;20052;-57